sensor_id;sensor_type;location;lat;lon;timestamp;P1;durP1;ratioP1;P2;durP2;ratioP2
14007;SDS011;61651;45.508;12.232;2022-12-18T00:01:33;4.97;;;4.53;;
14007;SDS011;61651;45.508;12.232;2022-12-18T00:04:36;5.43;;;4.90;;
14007;SDS011;61651;45.508;12.232;2022-12-18T00:07:39;5.43;;;4.40;;
14007;SDS011;61651;45.508;12.232;2022-12-18T00:10:42;4.73;;;4.33;;
14007;SDS011;61651;45.508;12.232;2022-12-18T00:13:44;4.50;;;4.10;;
14007;SDS011;61651;45.508;12.232;2022-12-18T00:16:46;5.80;;;4.40;;
14007;SDS011;61651;45.508;12.232;2022-12-18T00:19:48;5.53;;;5.00;;
14007;SDS011;61651;45.508;12.232;2022-12-18T00:22:51;4.93;;;4.43;;
14007;SDS011;61651;45.508;12.232;2022-12-18T00:25:53;4.73;;;4.23;;
14007;SDS011;61651;45.508;12.232;2022-12-18T00:28:57;5.33;;;4.83;;
14007;SDS011;61651;45.508;12.232;2022-12-18T00:32:00;4.77;;;4.27;;
14007;SDS011;61651;45.508;12.232;2022-12-18T00:35:02;5.07;;;4.37;;
14007;SDS011;61651;45.508;12.232;2022-12-18T00:38:05;5.13;;;4.23;;
14007;SDS011;61651;45.508;12.232;2022-12-18T00:41:08;5.20;;;4.70;;
14007;SDS011;61651;45.508;12.232;2022-12-18T00:44:11;5.70;;;5.10;;
14007;SDS011;61651;45.508;12.232;2022-12-18T00:47:13;5.03;;;4.63;;
14007;SDS011;61651;45.508;12.232;2022-12-18T00:50:15;5.47;;;4.83;;
14007;SDS011;61651;45.508;12.232;2022-12-18T00:53:18;4.50;;;4.00;;
14007;SDS011;61651;45.508;12.232;2022-12-18T00:56:21;4.03;;;3.63;;
14007;SDS011;61651;45.508;12.232;2022-12-18T00:59:23;5.60;;;5.10;;
14007;SDS011;61651;45.508;12.232;2022-12-18T01:02:25;5.00;;;4.40;;
14007;SDS011;61651;45.508;12.232;2022-12-18T01:05:27;5.60;;;4.40;;
14007;SDS011;61651;45.508;12.232;2022-12-18T01:08:30;5.13;;;4.57;;
14007;SDS011;61651;45.508;12.232;2022-12-18T01:11:32;4.63;;;4.23;;
14007;SDS011;61651;45.508;12.232;2022-12-18T01:14:35;4.67;;;4.23;;
14007;SDS011;61651;45.508;12.232;2022-12-18T01:17:38;4.80;;;4.30;;
14007;SDS011;61651;45.508;12.232;2022-12-18T01:20:40;5.87;;;4.47;;
14007;SDS011;61651;45.508;12.232;2022-12-18T01:23:43;5.83;;;4.50;;
14007;SDS011;61651;45.508;12.232;2022-12-18T01:26:46;4.97;;;4.47;;
14007;SDS011;61651;45.508;12.232;2022-12-18T01:29:48;5.40;;;4.47;;
14007;SDS011;61651;45.508;12.232;2022-12-18T01:32:51;5.50;;;4.50;;
14007;SDS011;61651;45.508;12.232;2022-12-18T01:35:53;7.00;;;4.73;;
14007;SDS011;61651;45.508;12.232;2022-12-18T01:38:56;5.10;;;4.60;;
14007;SDS011;61651;45.508;12.232;2022-12-18T01:42:00;5.57;;;4.73;;
14007;SDS011;61651;45.508;12.232;2022-12-18T01:48:26;5.63;;;4.33;;
14007;SDS011;61651;45.508;12.232;2022-12-18T01:51:28;4.73;;;4.23;;
14007;SDS011;61651;45.508;12.232;2022-12-18T01:54:32;4.30;;;3.90;;
14007;SDS011;61651;45.508;12.232;2022-12-18T01:57:34;4.77;;;3.90;;
14007;SDS011;61651;45.508;12.232;2022-12-18T02:00:37;6.07;;;5.03;;
14007;SDS011;61651;45.508;12.232;2022-12-18T02:03:40;4.87;;;4.30;;
14007;SDS011;61651;45.508;12.232;2022-12-18T02:06:43;5.63;;;4.27;;
14007;SDS011;61651;45.508;12.232;2022-12-18T02:09:48;5.03;;;4.53;;
14007;SDS011;61651;45.508;12.232;2022-12-18T02:12:57;5.90;;;4.40;;
14007;SDS011;61651;45.508;12.232;2022-12-18T02:16:05;5.47;;;4.47;;
14007;SDS011;61651;45.508;12.232;2022-12-18T02:19:16;5.23;;;4.50;;
14007;SDS011;61651;45.508;12.232;2022-12-18T02:22:32;4.83;;;4.20;;
14007;SDS011;61651;45.508;12.232;2022-12-18T02:25:52;4.77;;;4.27;;
14007;SDS011;61651;45.508;12.232;2022-12-18T02:29:04;5.23;;;4.33;;
14007;SDS011;61651;45.508;12.232;2022-12-18T02:32:10;4.23;;;3.83;;
14007;SDS011;61651;45.508;12.232;2022-12-18T02:35:16;4.33;;;3.93;;
14007;SDS011;61651;45.508;12.232;2022-12-18T02:38:23;4.60;;;4.17;;
14007;SDS011;61651;45.508;12.232;2022-12-18T02:41:28;4.63;;;4.03;;
14007;SDS011;61651;45.508;12.232;2022-12-18T02:44:32;4.50;;;3.73;;
14007;SDS011;61651;45.508;12.232;2022-12-18T02:47:36;4.53;;;4.13;;
14007;SDS011;61651;45.508;12.232;2022-12-18T02:50:41;4.43;;;4.00;;
14007;SDS011;61651;45.508;12.232;2022-12-18T02:53:48;4.10;;;3.80;;
14007;SDS011;61651;45.508;12.232;2022-12-18T02:56:55;4.43;;;3.87;;
14007;SDS011;61651;45.508;12.232;2022-12-18T03:00:03;5.40;;;4.30;;
14007;SDS011;61651;45.508;12.232;2022-12-18T03:03:09;5.07;;;4.20;;
14007;SDS011;61651;45.508;12.232;2022-12-18T03:06:18;4.73;;;4.20;;
14007;SDS011;61651;45.508;12.232;2022-12-18T03:09:27;6.57;;;4.37;;
14007;SDS011;61651;45.508;12.232;2022-12-18T03:12:35;4.50;;;4.10;;
14007;SDS011;61651;45.508;12.232;2022-12-18T03:15:41;3.90;;;3.53;;
14007;SDS011;61651;45.508;12.232;2022-12-18T03:18:47;4.73;;;4.23;;
14007;SDS011;61651;45.508;12.232;2022-12-18T03:21:53;5.90;;;3.80;;
14007;SDS011;61651;45.508;12.232;2022-12-18T03:24:57;5.43;;;4.07;;
14007;SDS011;61651;45.508;12.232;2022-12-18T03:28:04;5.20;;;4.70;;
14007;SDS011;61651;45.508;12.232;2022-12-18T03:31:10;4.27;;;3.87;;
14007;SDS011;61651;45.508;12.232;2022-12-18T03:34:15;4.70;;;4.07;;
14007;SDS011;61651;45.508;12.232;2022-12-18T03:37:22;4.70;;;4.17;;
14007;SDS011;61651;45.508;12.232;2022-12-18T03:40:26;5.03;;;4.13;;
14007;SDS011;61651;45.508;12.232;2022-12-18T03:43:36;5.73;;;4.80;;
14007;SDS011;61651;45.508;12.232;2022-12-18T03:46:46;4.93;;;3.97;;
14007;SDS011;61651;45.508;12.232;2022-12-18T03:49:56;4.77;;;4.20;;
14007;SDS011;61651;45.508;12.232;2022-12-18T03:53:06;5.33;;;4.40;;
14007;SDS011;61651;45.508;12.232;2022-12-18T03:56:14;5.47;;;4.13;;
14007;SDS011;61651;45.508;12.232;2022-12-18T03:59:20;4.83;;;4.20;;
14007;SDS011;61651;45.508;12.232;2022-12-18T04:02:25;6.67;;;4.63;;
14007;SDS011;61651;45.508;12.232;2022-12-18T04:05:28;5.83;;;4.53;;
14007;SDS011;61651;45.508;12.232;2022-12-18T04:08:32;5.20;;;3.97;;
14007;SDS011;61651;45.508;12.232;2022-12-18T04:11:35;5.77;;;4.60;;
14007;SDS011;61651;45.508;12.232;2022-12-18T04:14:39;5.73;;;4.67;;
14007;SDS011;61651;45.508;12.232;2022-12-18T04:17:43;4.97;;;4.47;;
14007;SDS011;61651;45.508;12.232;2022-12-18T04:20:49;4.53;;;4.13;;
14007;SDS011;61651;45.508;12.232;2022-12-18T04:23:51;4.90;;;4.37;;
14007;SDS011;61651;45.508;12.232;2022-12-18T04:26:53;6.30;;;4.63;;
14007;SDS011;61651;45.508;12.232;2022-12-18T04:29:57;6.33;;;5.20;;
14007;SDS011;61651;45.508;12.232;2022-12-18T04:32:59;7.57;;;4.93;;
14007;SDS011;61651;45.508;12.232;2022-12-18T04:36:01;6.33;;;5.00;;
14007;SDS011;61651;45.508;12.232;2022-12-18T04:39:03;5.37;;;4.87;;
14007;SDS011;61651;45.508;12.232;2022-12-18T04:42:05;7.57;;;4.50;;
14007;SDS011;61651;45.508;12.232;2022-12-18T04:45:09;5.10;;;4.50;;
14007;SDS011;61651;45.508;12.232;2022-12-18T04:48:11;7.20;;;4.73;;
14007;SDS011;61651;45.508;12.232;2022-12-18T04:51:13;4.93;;;4.30;;
14007;SDS011;61651;45.508;12.232;2022-12-18T04:54:15;5.13;;;4.13;;
14007;SDS011;61651;45.508;12.232;2022-12-18T04:57:17;5.43;;;4.50;;
14007;SDS011;61651;45.508;12.232;2022-12-18T05:00:21;5.73;;;5.20;;
14007;SDS011;61651;45.508;12.232;2022-12-18T05:03:23;5.77;;;4.67;;
14007;SDS011;61651;45.508;12.232;2022-12-18T05:06:25;6.37;;;4.53;;
14007;SDS011;61651;45.508;12.232;2022-12-18T05:09:27;5.93;;;5.33;;
14007;SDS011;61651;45.508;12.232;2022-12-18T05:12:29;5.50;;;4.80;;
14007;SDS011;61651;45.508;12.232;2022-12-18T05:15:34;6.77;;;5.00;;
14007;SDS011;61651;45.508;12.232;2022-12-18T05:18:36;8.00;;;4.70;;
14007;SDS011;61651;45.508;12.232;2022-12-18T05:21:38;6.93;;;5.20;;
14007;SDS011;61651;45.508;12.232;2022-12-18T05:24:40;5.83;;;4.73;;
14007;SDS011;61651;45.508;12.232;2022-12-18T05:27:42;6.27;;;5.00;;
14007;SDS011;61651;45.508;12.232;2022-12-18T05:30:48;5.23;;;4.70;;
14007;SDS011;61651;45.508;12.232;2022-12-18T05:33:51;5.40;;;4.80;;
14007;SDS011;61651;45.508;12.232;2022-12-18T05:36:54;7.53;;;5.40;;
14007;SDS011;61651;45.508;12.232;2022-12-18T05:39:56;6.20;;;5.17;;
14007;SDS011;61651;45.508;12.232;2022-12-18T05:42:57;8.00;;;5.70;;
14007;SDS011;61651;45.508;12.232;2022-12-18T05:46:04;5.90;;;5.03;;
14007;SDS011;61651;45.508;12.232;2022-12-18T05:49:06;5.90;;;5.40;;
14007;SDS011;61651;45.508;12.232;2022-12-18T05:52:09;5.83;;;4.90;;
14007;SDS011;61651;45.508;12.232;2022-12-18T05:55:11;6.63;;;5.30;;
14007;SDS011;61651;45.508;12.232;2022-12-18T05:58:13;5.97;;;5.23;;
14007;SDS011;61651;45.508;12.232;2022-12-18T06:01:18;5.97;;;4.57;;
14007;SDS011;61651;45.508;12.232;2022-12-18T06:04:22;5.87;;;5.13;;
14007;SDS011;61651;45.508;12.232;2022-12-18T06:07:24;6.27;;;5.20;;
14007;SDS011;61651;45.508;12.232;2022-12-18T06:10:26;8.70;;;5.50;;
14007;SDS011;61651;45.508;12.232;2022-12-18T06:13:28;5.63;;;4.93;;
14007;SDS011;61651;45.508;12.232;2022-12-18T06:16:31;7.43;;;5.60;;
14007;SDS011;61651;45.508;12.232;2022-12-18T06:19:33;6.43;;;5.47;;
14007;SDS011;61651;45.508;12.232;2022-12-18T06:22:35;6.10;;;5.30;;
14007;SDS011;61651;45.508;12.232;2022-12-18T06:25:37;6.57;;;5.63;;
14007;SDS011;61651;45.508;12.232;2022-12-18T06:28:40;6.93;;;5.30;;
14007;SDS011;61651;45.508;12.232;2022-12-18T06:31:44;7.33;;;5.50;;
14007;SDS011;61651;45.508;12.232;2022-12-18T06:34:46;7.67;;;5.33;;
14007;SDS011;61651;45.508;12.232;2022-12-18T06:37:48;8.10;;;5.50;;
14007;SDS011;61651;45.508;12.232;2022-12-18T06:40:50;6.23;;;5.30;;
14007;SDS011;61651;45.508;12.232;2022-12-18T06:43:52;6.97;;;5.77;;
14007;SDS011;61651;45.508;12.232;2022-12-18T06:46:55;6.80;;;5.70;;
14007;SDS011;61651;45.508;12.232;2022-12-18T06:49:57;8.63;;;6.23;;
14007;SDS011;61651;45.508;12.232;2022-12-18T06:52:59;8.00;;;5.43;;
14007;SDS011;61651;45.508;12.232;2022-12-18T06:56:01;8.03;;;5.93;;
14007;SDS011;61651;45.508;12.232;2022-12-18T06:59:04;6.40;;;5.03;;
14007;SDS011;61651;45.508;12.232;2022-12-18T07:02:10;6.07;;;5.40;;
14007;SDS011;61651;45.508;12.232;2022-12-18T07:05:14;5.93;;;5.30;;
14007;SDS011;61651;45.508;12.232;2022-12-18T07:08:16;6.43;;;4.90;;
14007;SDS011;61651;45.508;12.232;2022-12-18T07:11:18;8.23;;;5.70;;
14007;SDS011;61651;45.508;12.232;2022-12-18T07:14:20;6.97;;;5.70;;
14007;SDS011;61651;45.508;12.232;2022-12-18T07:17:23;7.00;;;5.43;;
14007;SDS011;61651;45.508;12.232;2022-12-18T07:20:25;10.63;;;7.87;;
14007;SDS011;61651;45.508;12.232;2022-12-18T07:23:27;55.70;;;28.10;;
14007;SDS011;61651;45.508;12.232;2022-12-18T07:26:29;19.83;;;13.87;;
14007;SDS011;61651;45.508;12.232;2022-12-18T07:29:31;8.07;;;7.23;;
14007;SDS011;61651;45.508;12.232;2022-12-18T07:32:35;8.33;;;6.63;;
14007;SDS011;61651;45.508;12.232;2022-12-18T07:35:37;8.37;;;5.93;;
14007;SDS011;61651;45.508;12.232;2022-12-18T07:38:38;6.33;;;5.73;;
14007;SDS011;61651;45.508;12.232;2022-12-18T07:41:41;8.17;;;6.87;;
14007;SDS011;61651;45.508;12.232;2022-12-18T07:44:45;9.60;;;7.70;;
14007;SDS011;61651;45.508;12.232;2022-12-18T07:47:49;9.13;;;8.03;;
14007;SDS011;61651;45.508;12.232;2022-12-18T07:50:57;9.13;;;7.07;;
14007;SDS011;61651;45.508;12.232;2022-12-18T07:53:59;7.97;;;6.57;;
14007;SDS011;61651;45.508;12.232;2022-12-18T07:57:01;6.97;;;5.97;;
14007;SDS011;61651;45.508;12.232;2022-12-18T08:00:03;9.53;;;6.10;;
14007;SDS011;61651;45.508;12.232;2022-12-18T08:03:08;6.53;;;5.80;;
14007;SDS011;61651;45.508;12.232;2022-12-18T08:06:19;7.77;;;6.30;;
14007;SDS011;61651;45.508;12.232;2022-12-18T08:09:21;8.27;;;6.73;;
14007;SDS011;61651;45.508;12.232;2022-12-18T08:12:23;7.97;;;6.30;;
14007;SDS011;61651;45.508;12.232;2022-12-18T08:15:25;7.33;;;6.57;;
14007;SDS011;61651;45.508;12.232;2022-12-18T08:18:28;7.07;;;6.33;;
14007;SDS011;61651;45.508;12.232;2022-12-18T08:21:31;7.83;;;6.90;;
14007;SDS011;61651;45.508;12.232;2022-12-18T08:24:33;9.77;;;7.80;;
14007;SDS011;61651;45.508;12.232;2022-12-18T08:27:35;8.40;;;6.93;;
14007;SDS011;61651;45.508;12.232;2022-12-18T08:30:37;8.37;;;7.20;;
14007;SDS011;61651;45.508;12.232;2022-12-18T08:33:41;8.48;;;7.40;;
14007;SDS011;61651;45.508;12.232;2022-12-18T08:36:43;8.57;;;6.50;;
14007;SDS011;61651;45.508;12.232;2022-12-18T08:39:45;7.20;;;5.90;;
14007;SDS011;61651;45.508;12.232;2022-12-18T08:42:47;7.03;;;6.10;;
14007;SDS011;61651;45.508;12.232;2022-12-18T08:46:05;8.63;;;6.20;;
14007;SDS011;61651;45.508;12.232;2022-12-18T08:49:09;8.40;;;6.87;;
14007;SDS011;61651;45.508;12.232;2022-12-18T08:52:12;8.68;;;6.90;;
14007;SDS011;61651;45.508;12.232;2022-12-18T08:55:14;8.47;;;6.07;;
14007;SDS011;61651;45.508;12.232;2022-12-18T08:58:16;7.47;;;6.40;;
14007;SDS011;61651;45.508;12.232;2022-12-18T09:01:18;9.00;;;6.80;;
14007;SDS011;61651;45.508;12.232;2022-12-18T09:04:22;7.53;;;6.33;;
14007;SDS011;61651;45.508;12.232;2022-12-18T09:07:24;7.60;;;6.03;;
14007;SDS011;61651;45.508;12.232;2022-12-18T09:10:26;7.67;;;6.27;;
14007;SDS011;61651;45.508;12.232;2022-12-18T09:13:28;8.10;;;6.30;;
14007;SDS011;61651;45.508;12.232;2022-12-18T09:16:36;8.86;;;6.50;;
14007;SDS011;61651;45.508;12.232;2022-12-18T09:19:40;7.97;;;7.13;;
14007;SDS011;61651;45.508;12.232;2022-12-18T09:22:42;7.57;;;6.77;;
14007;SDS011;61651;45.508;12.232;2022-12-18T09:25:44;6.93;;;6.00;;
14007;SDS011;61651;45.508;12.232;2022-12-18T09:28:46;8.93;;;7.00;;
14007;SDS011;61651;45.508;12.232;2022-12-18T09:31:49;8.70;;;6.70;;
14007;SDS011;61651;45.508;12.232;2022-12-18T09:34:52;8.03;;;7.00;;
14007;SDS011;61651;45.508;12.232;2022-12-18T09:37:54;9.67;;;6.67;;
14007;SDS011;61651;45.508;12.232;2022-12-18T09:40:57;7.37;;;5.77;;
14007;SDS011;61651;45.508;12.232;2022-12-18T09:44:05;7.93;;;6.17;;
14007;SDS011;61651;45.508;12.232;2022-12-18T09:47:15;9.37;;;7.50;;
14007;SDS011;61651;45.508;12.232;2022-12-18T09:50:23;7.83;;;5.87;;
14007;SDS011;61651;45.508;12.232;2022-12-18T09:53:32;8.17;;;5.97;;
14007;SDS011;61651;45.508;12.232;2022-12-18T09:56:40;7.30;;;6.40;;
14007;SDS011;61651;45.508;12.232;2022-12-18T09:59:44;8.27;;;6.40;;
14007;SDS011;61651;45.508;12.232;2022-12-18T10:02:51;7.97;;;6.57;;
14007;SDS011;61651;45.508;12.232;2022-12-18T10:06:01;8.20;;;6.57;;
14007;SDS011;61651;45.508;12.232;2022-12-18T10:09:15;9.87;;;6.43;;
14007;SDS011;61651;45.508;12.232;2022-12-18T10:12:25;7.07;;;6.37;;
14007;SDS011;61651;45.508;12.232;2022-12-18T10:15:35;6.57;;;5.60;;
14007;SDS011;61651;45.508;12.232;2022-12-18T10:18:50;10.23;;;9.23;;
14007;SDS011;61651;45.508;12.232;2022-12-18T10:22:12;7.80;;;6.17;;
14007;SDS011;61651;45.508;12.232;2022-12-18T10:25:21;6.73;;;6.03;;
14007;SDS011;61651;45.508;12.232;2022-12-18T10:28:26;8.37;;;6.17;;
14007;SDS011;61651;45.508;12.232;2022-12-18T10:31:30;7.53;;;6.33;;
14007;SDS011;61651;45.508;12.232;2022-12-18T10:34:32;8.83;;;6.97;;
14007;SDS011;61651;45.508;12.232;2022-12-18T10:37:36;8.90;;;7.75;;
14007;SDS011;61651;45.508;12.232;2022-12-18T10:40:59;10.07;;;7.23;;
14007;SDS011;61651;45.508;12.232;2022-12-18T10:44:12;8.27;;;6.37;;
14007;SDS011;61651;45.508;12.232;2022-12-18T10:47:18;9.20;;;7.40;;
14007;SDS011;61651;45.508;12.232;2022-12-18T10:50:29;9.17;;;6.33;;
14007;SDS011;61651;45.508;12.232;2022-12-18T10:53:34;7.73;;;6.60;;
14007;SDS011;61651;45.508;12.232;2022-12-18T10:56:38;8.40;;;6.80;;
14007;SDS011;61651;45.508;12.232;2022-12-18T10:59:49;7.83;;;6.53;;
14007;SDS011;61651;45.508;12.232;2022-12-18T11:02:52;6.90;;;6.20;;
14007;SDS011;61651;45.508;12.232;2022-12-18T11:06:00;7.40;;;6.60;;
14007;SDS011;61651;45.508;12.232;2022-12-18T11:09:07;7.57;;;6.23;;
14007;SDS011;61651;45.508;12.232;2022-12-18T11:12:21;7.03;;;6.33;;
14007;SDS011;61651;45.508;12.232;2022-12-18T11:15:26;8.50;;;6.70;;
14007;SDS011;61651;45.508;12.232;2022-12-18T11:18:31;7.83;;;6.47;;
14007;SDS011;61651;45.508;12.232;2022-12-18T11:21:38;8.03;;;7.00;;
14007;SDS011;61651;45.508;12.232;2022-12-18T11:24:42;8.07;;;6.73;;
14007;SDS011;61651;45.508;12.232;2022-12-18T11:27:54;8.67;;;6.37;;
14007;SDS011;61651;45.508;12.232;2022-12-18T11:31:08;7.77;;;6.37;;
14007;SDS011;61651;45.508;12.232;2022-12-18T11:34:19;8.27;;;6.97;;
14007;SDS011;61651;45.508;12.232;2022-12-18T11:37:27;8.20;;;6.93;;
14007;SDS011;61651;45.508;12.232;2022-12-18T11:40:33;9.40;;;6.77;;
14007;SDS011;61651;45.508;12.232;2022-12-18T11:43:38;8.50;;;7.60;;
14007;SDS011;61651;45.508;12.232;2022-12-18T11:46:47;7.70;;;6.73;;
14007;SDS011;61651;45.508;12.232;2022-12-18T11:49:52;8.17;;;6.67;;
14007;SDS011;61651;45.508;12.232;2022-12-18T11:53:00;7.63;;;6.20;;
14007;SDS011;61651;45.508;12.232;2022-12-18T11:56:07;8.00;;;6.87;;
14007;SDS011;61651;45.508;12.232;2022-12-18T11:59:30;8.57;;;7.00;;
14007;SDS011;61651;45.508;12.232;2022-12-18T12:02:42;8.60;;;6.93;;
14007;SDS011;61651;45.508;12.232;2022-12-18T12:06:10;8.17;;;6.37;;
14007;SDS011;61651;45.508;12.232;2022-12-18T12:09:23;9.10;;;7.43;;
14007;SDS011;61651;45.508;12.232;2022-12-18T12:12:36;7.97;;;6.47;;
14007;SDS011;61651;45.508;12.232;2022-12-18T12:15:57;9.00;;;6.67;;
14007;SDS011;61651;45.508;12.232;2022-12-18T12:19:13;8.40;;;7.33;;
14007;SDS011;61651;45.508;12.232;2022-12-18T12:22:28;7.83;;;6.50;;
14007;SDS011;61651;45.508;12.232;2022-12-18T12:25:39;9.13;;;7.00;;
14007;SDS011;61651;45.508;12.232;2022-12-18T12:28:59;9.23;;;6.60;;
14007;SDS011;61651;45.508;12.232;2022-12-18T12:32:11;9.97;;;7.00;;
14007;SDS011;61651;45.508;12.232;2022-12-18T12:35:32;7.77;;;6.70;;
14007;SDS011;61651;45.508;12.232;2022-12-18T12:38:44;7.93;;;6.03;;
14007;SDS011;61651;45.508;12.232;2022-12-18T12:41:50;7.43;;;6.20;;
14007;SDS011;61651;45.508;12.232;2022-12-18T12:45:13;8.03;;;6.23;;
14007;SDS011;61651;45.508;12.232;2022-12-18T12:48:28;7.20;;;6.30;;
14007;SDS011;61651;45.508;12.232;2022-12-18T12:51:37;6.75;;;6.05;;
14007;SDS011;61651;45.508;12.232;2022-12-18T12:54:41;6.97;;;5.83;;
14007;SDS011;61651;45.508;12.232;2022-12-18T12:57:45;5.77;;;5.17;;
14007;SDS011;61651;45.508;12.232;2022-12-18T13:00:56;8.80;;;6.33;;
14007;SDS011;61651;45.508;12.232;2022-12-18T13:04:12;6.23;;;5.37;;
14007;SDS011;61651;45.508;12.232;2022-12-18T13:07:23;5.97;;;5.30;;
14007;SDS011;61651;45.508;12.232;2022-12-18T13:10:33;7.33;;;5.40;;
14007;SDS011;61651;45.508;12.232;2022-12-18T13:13:40;6.63;;;5.23;;
14007;SDS011;61651;45.508;12.232;2022-12-18T13:16:50;6.37;;;5.37;;
14007;SDS011;61651;45.508;12.232;2022-12-18T13:19:52;6.45;;;5.20;;
14007;SDS011;61651;45.508;12.232;2022-12-18T13:23:19;9.63;;;5.53;;
14007;SDS011;61651;45.508;12.232;2022-12-18T13:26:32;5.63;;;4.77;;
14007;SDS011;61651;45.508;12.232;2022-12-18T13:29:42;5.83;;;5.13;;
14007;SDS011;61651;45.508;12.232;2022-12-18T13:32:47;5.32;;;4.80;;
14007;SDS011;61651;45.508;12.232;2022-12-18T13:35:53;5.90;;;5.30;;
14007;SDS011;61651;45.508;12.232;2022-12-18T13:42:34;5.70;;;4.80;;
14007;SDS011;61651;45.508;12.232;2022-12-18T13:45:59;6.15;;;4.95;;
14007;SDS011;61651;45.508;12.232;2022-12-18T13:49:20;7.20;;;5.70;;
14007;SDS011;61651;45.508;12.232;2022-12-18T13:52:25;7.90;;;5.95;;
14007;SDS011;61651;45.508;12.232;2022-12-18T13:55:29;5.60;;;4.80;;
14007;SDS011;61651;45.508;12.232;2022-12-18T13:58:31;6.18;;;4.80;;
14007;SDS011;61651;45.508;12.232;2022-12-18T14:01:33;7.90;;;5.68;;
14007;SDS011;61651;45.508;12.232;2022-12-18T14:04:36;6.82;;;5.25;;
14007;SDS011;61651;45.508;12.232;2022-12-18T14:07:38;6.18;;;4.97;;
14007;SDS011;61651;45.508;12.232;2022-12-18T14:10:41;6.65;;;4.68;;
14007;SDS011;61651;45.508;12.232;2022-12-18T14:13:44;5.55;;;4.78;;
14007;SDS011;61651;45.508;12.232;2022-12-18T14:16:48;5.85;;;5.07;;
14007;SDS011;61651;45.508;12.232;2022-12-18T14:19:51;5.45;;;4.82;;
14007;SDS011;61651;45.508;12.232;2022-12-18T14:22:53;7.25;;;5.88;;
14007;SDS011;61651;45.508;12.232;2022-12-18T14:25:57;5.95;;;5.25;;
14007;SDS011;61651;45.508;12.232;2022-12-18T14:29:01;6.88;;;6.18;;
14007;SDS011;61651;45.508;12.232;2022-12-18T14:32:20;7.22;;;5.80;;
14007;SDS011;61651;45.508;12.232;2022-12-18T14:35:24;6.50;;;5.50;;
14007;SDS011;61651;45.508;12.232;2022-12-18T14:38:27;8.20;;;5.85;;
14007;SDS011;61651;45.508;12.232;2022-12-18T14:41:30;7.10;;;5.63;;
14007;SDS011;61651;45.508;12.232;2022-12-18T14:44:33;7.72;;;5.93;;
14007;SDS011;61651;45.508;12.232;2022-12-18T14:47:35;7.55;;;6.43;;
14007;SDS011;61651;45.508;12.232;2022-12-18T14:50:38;7.00;;;6.30;;
14007;SDS011;61651;45.508;12.232;2022-12-18T14:53:41;7.90;;;5.97;;
14007;SDS011;61651;45.508;12.232;2022-12-18T14:56:46;6.57;;;5.88;;
14007;SDS011;61651;45.508;12.232;2022-12-18T14:59:49;8.13;;;5.85;;
14007;SDS011;61651;45.508;12.232;2022-12-18T15:02:53;7.13;;;6.03;;
14007;SDS011;61651;45.508;12.232;2022-12-18T15:05:58;7.70;;;5.90;;
14007;SDS011;61651;45.508;12.232;2022-12-18T15:09:21;6.13;;;5.53;;
14007;SDS011;61651;45.508;12.232;2022-12-18T15:12:25;12.77;;;6.50;;
14007;SDS011;61651;45.508;12.232;2022-12-18T15:15:47;7.03;;;5.60;;
14007;SDS011;61651;45.508;12.232;2022-12-18T15:18:49;8.43;;;6.50;;
14007;SDS011;61651;45.508;12.232;2022-12-18T15:21:53;8.03;;;6.37;;
14007;SDS011;61651;45.508;12.232;2022-12-18T15:24:55;8.20;;;6.30;;
14007;SDS011;61651;45.508;12.232;2022-12-18T15:27:58;8.30;;;6.20;;
14007;SDS011;61651;45.508;12.232;2022-12-18T15:31:01;7.23;;;6.00;;
14007;SDS011;61651;45.508;12.232;2022-12-18T15:34:09;8.20;;;6.63;;
14007;SDS011;61651;45.508;12.232;2022-12-18T15:37:21;7.33;;;6.50;;
14007;SDS011;61651;45.508;12.232;2022-12-18T15:40:23;6.97;;;5.77;;
14007;SDS011;61651;45.508;12.232;2022-12-18T15:43:26;9.50;;;6.43;;
14007;SDS011;61651;45.508;12.232;2022-12-18T15:46:37;7.23;;;5.97;;
14007;SDS011;61651;45.508;12.232;2022-12-18T15:49:39;10.93;;;6.40;;
14007;SDS011;61651;45.508;12.232;2022-12-18T15:52:43;9.03;;;6.87;;
14007;SDS011;61651;45.508;12.232;2022-12-18T15:55:46;7.20;;;6.07;;
14007;SDS011;61651;45.508;12.232;2022-12-18T15:59:08;7.50;;;6.17;;
14007;SDS011;61651;45.508;12.232;2022-12-18T16:02:14;8.90;;;6.77;;
14007;SDS011;61651;45.508;12.232;2022-12-18T16:05:18;8.40;;;6.87;;
14007;SDS011;61651;45.508;12.232;2022-12-18T16:08:23;8.70;;;7.67;;
14007;SDS011;61651;45.508;12.232;2022-12-18T16:11:26;9.60;;;7.63;;
14007;SDS011;61651;45.508;12.232;2022-12-18T16:14:41;8.13;;;6.83;;
14007;SDS011;61651;45.508;12.232;2022-12-18T16:17:44;10.60;;;7.83;;
14007;SDS011;61651;45.508;12.232;2022-12-18T16:20:47;9.87;;;7.73;;
14007;SDS011;61651;45.508;12.232;2022-12-18T16:23:50;12.93;;;8.37;;
14007;SDS011;61651;45.508;12.232;2022-12-18T16:26:52;13.53;;;9.30;;
14007;SDS011;61651;45.508;12.232;2022-12-18T16:29:55;13.80;;;8.13;;
14007;SDS011;61651;45.508;12.232;2022-12-18T16:32:57;10.00;;;8.17;;
14007;SDS011;61651;45.508;12.232;2022-12-18T16:35:59;17.03;;;11.20;;
14007;SDS011;61651;45.508;12.232;2022-12-18T16:39:03;24.77;;;21.83;;
14007;SDS011;61651;45.508;12.232;2022-12-18T16:42:05;24.77;;;21.10;;
14007;SDS011;61651;45.508;12.232;2022-12-18T16:45:13;15.27;;;13.47;;
14007;SDS011;61651;45.508;12.232;2022-12-18T16:48:16;16.67;;;12.73;;
14007;SDS011;61651;45.508;12.232;2022-12-18T16:51:18;17.57;;;15.40;;
14007;SDS011;61651;45.508;12.232;2022-12-18T16:54:22;15.27;;;11.80;;
14007;SDS011;61651;45.508;12.232;2022-12-18T16:57:24;15.27;;;11.87;;
14007;SDS011;61651;45.508;12.232;2022-12-18T17:00:25;19.97;;;11.33;;
14007;SDS011;61651;45.508;12.232;2022-12-18T17:03:27;11.77;;;10.33;;
14007;SDS011;61651;45.508;12.232;2022-12-18T17:06:30;16.50;;;10.63;;
14007;SDS011;61651;45.508;12.232;2022-12-18T17:09:35;13.03;;;10.67;;
14007;SDS011;61651;45.508;12.232;2022-12-18T17:12:37;10.97;;;9.10;;
14007;SDS011;61651;45.508;12.232;2022-12-18T17:15:39;12.53;;;9.97;;
14007;SDS011;61651;45.508;12.232;2022-12-18T17:18:41;14.63;;;10.63;;
14007;SDS011;61651;45.508;12.232;2022-12-18T17:21:46;13.10;;;10.10;;
14007;SDS011;61651;45.508;12.232;2022-12-18T17:24:52;14.00;;;9.30;;
14007;SDS011;61651;45.508;12.232;2022-12-18T17:27:54;12.10;;;10.43;;
14007;SDS011;61651;45.508;12.232;2022-12-18T17:30:56;15.80;;;10.53;;
14007;SDS011;61651;45.508;12.232;2022-12-18T17:33:59;14.83;;;11.60;;
14007;SDS011;61651;45.508;12.232;2022-12-18T17:37:02;21.90;;;16.80;;
14007;SDS011;61651;45.508;12.232;2022-12-18T17:40:07;23.87;;;16.43;;
14007;SDS011;61651;45.508;12.232;2022-12-18T17:43:09;23.23;;;17.50;;
14007;SDS011;61651;45.508;12.232;2022-12-18T17:46:12;29.57;;;21.50;;
14007;SDS011;61651;45.508;12.232;2022-12-18T17:49:15;25.20;;;17.83;;
14007;SDS011;61651;45.508;12.232;2022-12-18T17:52:17;24.40;;;18.23;;
14007;SDS011;61651;45.508;12.232;2022-12-18T17:55:20;26.50;;;18.43;;
14007;SDS011;61651;45.508;12.232;2022-12-18T17:58:23;26.50;;;17.47;;
14007;SDS011;61651;45.508;12.232;2022-12-18T18:01:25;24.87;;;17.97;;
14007;SDS011;61651;45.508;12.232;2022-12-18T18:04:28;27.50;;;22.47;;
14007;SDS011;61651;45.508;12.232;2022-12-18T18:07:29;41.77;;;37.87;;
14007;SDS011;61651;45.508;12.232;2022-12-18T18:10:35;31.67;;;28.37;;
14007;SDS011;61651;45.508;12.232;2022-12-18T18:13:38;29.97;;;23.30;;
14007;SDS011;61651;45.508;12.232;2022-12-18T18:16:57;25.57;;;20.37;;
14007;SDS011;61651;45.508;12.232;2022-12-18T18:19:59;26.70;;;19.77;;
14007;SDS011;61651;45.508;12.232;2022-12-18T18:23:01;24.27;;;20.27;;